createdAt,value
2023-05-05T00:00:59.189Z,1.00
2023-05-05T00:02:03.225Z,2.50
2023-05-05T00:03:10.623Z,3.00
2023-05-05T00:04:23.130Z,3.00
2023-05-05T00:05:27.689Z,1.00
2023-05-05T00:06:31.770Z,2.00
2023-05-05T00:07:35.686Z,2.00
2023-05-05T00:08:39.681Z,2.00
2023-05-05T00:09:44.198Z,2.00
2023-05-05T00:10:48.590Z,2.50
2023-05-05T00:11:52.697Z,2.00
2023-05-05T00:12:56.874Z,1.50
2023-05-05T00:14:01.109Z,1.50
2023-05-05T00:15:05.316Z,2.00
2023-05-05T00:16:09.632Z,1.25
2023-05-05T00:17:13.871Z,1.00
2023-05-05T00:18:17.945Z,2.00
2023-05-05T00:19:21.741Z,1.50
2023-05-05T00:20:25.604Z,2.00
2023-05-05T00:21:29.429Z,1.50
2023-05-05T00:22:34.357Z,2.00
2023-05-05T00:23:38.067Z,1.25
2023-05-05T00:24:41.731Z,2.00
2023-05-05T00:25:45.657Z,1.50
2023-05-05T00:26:49.535Z,1.50
2023-05-05T00:27:53.537Z,1.25
2023-05-05T00:28:57.334Z,1.50
2023-05-05T00:30:01.315Z,1.25
2023-05-05T00:31:05.189Z,2.25
2023-05-05T00:32:09.057Z,2.50
2023-05-05T00:33:12.891Z,2.75
2023-05-05T00:34:16.609Z,3.00
2023-05-05T00:35:20.428Z,2.75
2023-05-05T00:36:24.225Z,2.00
2023-05-05T00:37:28.018Z,2.00
2023-05-05T00:38:31.842Z,1.50
2023-05-05T00:39:36.129Z,1.50
2023-05-05T00:40:40.133Z,1.00
2023-05-05T00:41:44.121Z,1.50
2023-05-05T00:42:48.116Z,1.50
2023-05-05T00:43:52.576Z,2.00
2023-05-05T00:44:56.736Z,1.00
2023-05-05T00:46:00.688Z,1.50
2023-05-05T00:47:04.537Z,1.00
2023-05-05T00:48:08.424Z,1.50
2023-05-05T00:49:12.486Z,2.00
2023-05-05T00:50:16.361Z,2.50
2023-05-05T00:51:20.246Z,2.00
2023-05-05T00:52:24.130Z,2.50
2023-05-05T00:53:27.933Z,2.00
2023-05-05T00:54:31.725Z,1.50
2023-05-05T00:55:35.431Z,1.50
2023-05-05T00:56:39.218Z,1.00
2023-05-05T00:57:43.226Z,1.50
2023-05-05T00:58:47.120Z,2.00
2023-05-05T00:59:51.340Z,2.00
2023-05-05T01:00:55.217Z,1.50
2023-05-05T01:01:59.174Z,1.25
2023-05-05T01:03:04.433Z,1.00
2023-05-05T01:04:08.395Z,1.00
2023-05-05T01:05:12.573Z,2.00
2023-05-05T01:06:16.659Z,1.25
2023-05-05T01:07:20.756Z,1.25
2023-05-05T01:08:25.380Z,1.50
2023-05-05T01:09:29.175Z,1.25
2023-05-05T01:10:33.154Z,0.00
2023-05-05T01:11:37.178Z,0.75
2023-05-05T01:12:41.103Z,1.50
2023-05-05T01:13:44.971Z,1.50
2023-05-05T01:14:49.024Z,1.00
2023-05-05T01:15:52.782Z,2.00
2023-05-05T01:16:56.781Z,2.00
2023-05-05T01:18:00.689Z,2.00
2023-05-05T01:19:04.783Z,2.00
2023-05-05T01:20:08.819Z,2.00
2023-05-05T01:21:12.994Z,2.25
2023-05-05T01:22:18.503Z,2.50
2023-05-05T01:23:22.444Z,1.50
2023-05-05T01:24:26.525Z,1.00
2023-05-05T01:25:30.514Z,1.00
2023-05-05T01:26:34.412Z,0.00
2023-05-05T01:27:38.330Z,0.50
2023-05-05T01:28:42.215Z,0.50
2023-05-05T01:29:47.411Z,2.00
2023-05-05T01:30:51.657Z,1.00
2023-05-05T01:31:55.595Z,1.00
2023-05-05T01:32:59.442Z,0.25
2023-05-05T01:34:03.432Z,0.00
2023-05-05T01:35:07.150Z,0.50
2023-05-05T01:36:11.139Z,1.00
2023-05-05T01:37:15.367Z,0.50
2023-05-05T01:38:19.662Z,0.25
2023-05-05T01:39:23.757Z,0.00
2023-05-05T01:40:27.867Z,0.00
2023-05-05T01:41:33.514Z,0.25
2023-05-05T01:42:36.999Z,0.00
2023-05-05T01:43:41.016Z,0.00
2023-05-05T01:44:45.102Z,0.00
2023-05-05T01:45:49.145Z,0.00
2023-05-05T01:46:53.314Z,0.00
2023-05-05T01:47:57.274Z,0.00
2023-05-05T01:49:01.210Z,0.25
2023-05-05T01:50:05.191Z,0.25
2023-05-05T01:51:12.996Z,0.25
2023-05-05T01:52:16.798Z,0.00
2023-05-05T01:53:20.836Z,0.00
2023-05-05T01:54:24.708Z,0.50
2023-05-05T01:55:28.602Z,0.00
2023-05-05T01:56:34.285Z,0.50
2023-05-05T01:57:38.334Z,0.00
2023-05-05T01:58:42.019Z,0.00
2023-05-05T01:59:45.928Z,0.50
2023-05-05T02:00:49.809Z,0.50
2023-05-05T02:01:53.728Z,0.00
2023-05-05T02:02:57.735Z,0.00
2023-05-05T02:04:01.623Z,0.00
2023-05-05T02:05:05.699Z,0.00
2023-05-05T02:06:09.842Z,0.00
2023-05-05T02:07:13.748Z,0.50
2023-05-05T02:08:17.631Z,0.50
2023-05-05T02:09:21.732Z,0.50
2023-05-05T02:10:25.850Z,0.25
2023-05-05T02:11:29.739Z,0.00
2023-05-05T02:12:33.588Z,0.25
2023-05-05T02:13:37.743Z,0.00
2023-05-05T02:14:41.718Z,0.00
2023-05-05T02:15:45.670Z,0.00
2023-05-05T02:16:49.637Z,0.50
2023-05-05T02:17:54.013Z,0.00
2023-05-05T02:18:58.062Z,0.00
2023-05-05T02:20:02.466Z,0.00
2023-05-05T02:21:06.463Z,0.00
2023-05-05T02:22:10.476Z,0.00
2023-05-05T02:23:14.605Z,0.00
2023-05-05T02:24:18.594Z,0.00
2023-05-05T02:25:22.633Z,0.00
2023-05-05T02:26:26.564Z,0.00
2023-05-05T02:27:30.564Z,0.00
2023-05-05T02:28:34.775Z,0.00
2023-05-05T02:29:38.791Z,0.00
2023-05-05T02:30:42.779Z,0.00
2023-05-05T02:31:47.085Z,0.00
2023-05-05T02:32:51.246Z,0.00
2023-05-05T02:33:55.396Z,0.00
2023-05-05T02:34:59.500Z,0.00
2023-05-05T02:36:03.631Z,0.00
2023-05-05T02:37:07.638Z,0.00
2023-05-05T02:38:11.817Z,0.00
2023-05-05T02:39:15.816Z,0.00
2023-05-05T02:40:20.120Z,0.00
2023-05-05T02:41:24.019Z,0.00
2023-05-05T02:42:27.706Z,0.00
2023-05-05T02:43:31.613Z,0.00
2023-05-05T02:44:35.405Z,0.00
2023-05-05T02:45:39.232Z,0.00
2023-05-05T02:46:43.051Z,0.00
2023-05-05T02:47:46.955Z,0.00
2023-05-05T02:48:50.706Z,0.00
2023-05-05T02:49:54.483Z,0.00
2023-05-05T02:50:58.271Z,0.00
2023-05-05T02:52:02.089Z,0.00
2023-05-05T02:53:05.893Z,0.00
2023-05-05T02:54:09.784Z,0.00
2023-05-05T02:55:13.586Z,0.00
2023-05-05T02:56:17.466Z,0.00
2023-05-05T02:57:21.164Z,0.00
2023-05-05T02:58:24.970Z,0.00
2023-05-05T02:59:28.777Z,0.00
2023-05-05T03:00:32.464Z,0.00
2023-05-05T03:01:36.285Z,0.00
2023-05-05T03:02:40.107Z,0.00
2023-05-05T03:03:44.059Z,0.00
2023-05-05T03:04:47.952Z,0.00
2023-05-05T03:05:51.849Z,0.00
2023-05-05T03:06:55.744Z,0.00
2023-05-05T03:07:59.475Z,0.00
2023-05-05T03:09:03.466Z,0.00
2023-05-05T03:10:07.538Z,0.00
2023-05-05T03:11:15.024Z,0.00
2023-05-05T03:12:19.026Z,0.00
2023-05-05T03:13:23.350Z,0.00
2023-05-05T03:14:27.266Z,0.00
2023-05-05T03:15:31.342Z,0.00
2023-05-05T03:16:35.478Z,0.00
2023-05-05T03:17:39.544Z,0.00
2023-05-05T03:18:43.646Z,0.00
2023-05-05T03:19:47.559Z,0.00
2023-05-05T03:20:51.771Z,0.00
2023-05-05T03:21:55.855Z,0.00
2023-05-05T03:23:00.075Z,0.00
2023-05-05T03:24:03.853Z,0.00
2023-05-05T03:25:07.985Z,0.00
2023-05-05T03:26:11.980Z,0.00
2023-05-05T03:27:16.160Z,0.00
2023-05-05T03:28:20.274Z,0.00
2023-05-05T03:29:24.381Z,0.00
2023-05-05T03:30:28.741Z,0.00
2023-05-05T03:31:32.910Z,0.00
2023-05-05T03:32:37.011Z,0.00
2023-05-05T03:33:40.992Z,0.00
2023-05-05T03:34:44.987Z,0.50
2023-05-05T03:35:49.010Z,0.00
2023-05-05T03:36:52.963Z,0.00
2023-05-05T03:37:57.102Z,0.00
2023-05-05T03:39:01.211Z,0.00
2023-05-05T03:40:05.382Z,0.00
2023-05-05T03:41:09.303Z,0.00
2023-05-05T03:42:13.204Z,0.00
2023-05-05T03:43:17.210Z,0.00
2023-05-05T03:44:21.016Z,0.00
2023-05-05T03:45:24.919Z,0.00
2023-05-05T03:46:28.597Z,0.50
2023-05-05T03:47:32.445Z,0.50
2023-05-05T03:48:36.493Z,0.25
2023-05-05T03:49:40.216Z,0.00
2023-05-05T03:50:43.992Z,0.00
2023-05-05T03:51:47.677Z,0.00
2023-05-05T03:52:51.571Z,0.25
2023-05-05T03:53:55.282Z,0.50
2023-05-05T03:54:59.479Z,0.00
2023-05-05T03:56:03.479Z,0.00
2023-05-05T03:57:07.585Z,0.50
2023-05-05T03:58:11.604Z,0.50
2023-05-05T03:59:15.789Z,0.00
2023-05-05T04:00:19.893Z,0.50
2023-05-05T04:01:24.006Z,0.50
2023-05-05T04:02:28.259Z,0.00
2023-05-05T04:03:32.479Z,0.50
2023-05-05T04:04:36.619Z,0.25
2023-05-05T04:05:40.524Z,0.00
2023-05-05T04:06:44.734Z,1.00
2023-05-05T04:07:49.319Z,0.50
2023-05-05T04:08:54.040Z,0.25
2023-05-05T04:09:58.150Z,0.00
2023-05-05T04:11:02.463Z,0.50
2023-05-05T04:12:07.065Z,0.25
2023-05-05T04:13:11.428Z,1.00
2023-05-05T04:14:15.704Z,1.00
2023-05-05T04:15:20.218Z,0.50
2023-05-05T04:16:24.786Z,0.25
2023-05-05T04:17:29.045Z,0.75
2023-05-05T04:18:35.058Z,0.00
2023-05-05T04:19:41.420Z,0.00
2023-05-05T04:20:46.147Z,0.50
2023-05-05T04:21:50.756Z,0.50
2023-05-05T04:22:54.926Z,0.50
2023-05-05T04:23:59.378Z,1.00
2023-05-05T04:25:03.550Z,1.00
2023-05-05T04:26:08.293Z,1.00
2023-05-05T04:27:12.501Z,1.00
2023-05-05T04:28:21.064Z,1.00
2023-05-05T04:29:24.767Z,0.75
2023-05-05T04:30:28.847Z,1.00
2023-05-05T04:31:33.144Z,1.25
2023-05-05T04:32:37.377Z,1.00
2023-05-05T04:33:43.091Z,0.25
2023-05-05T04:34:47.179Z,0.25
2023-05-05T04:35:52.872Z,1.00
2023-05-05T04:36:57.012Z,1.00
2023-05-05T04:38:01.155Z,2.00
2023-05-05T04:39:05.534Z,1.25
2023-05-05T04:40:17.289Z,0.50
2023-05-05T04:41:21.329Z,1.00
2023-05-05T04:42:25.409Z,1.25
2023-05-05T04:43:29.519Z,0.75
2023-05-05T04:44:33.837Z,0.00
2023-05-05T04:45:38.438Z,1.00
2023-05-05T04:46:42.830Z,1.00
2023-05-05T04:47:46.993Z,0.50
2023-05-05T04:48:51.772Z,0.50
2023-05-05T04:49:56.083Z,1.25
2023-05-05T04:51:00.247Z,1.25
2023-05-05T04:52:04.799Z,2.00
2023-05-05T04:53:09.032Z,2.50
2023-05-05T04:54:13.118Z,2.50
2023-05-05T04:55:17.518Z,1.50
2023-05-05T04:56:21.738Z,1.50
2023-05-05T04:57:25.693Z,1.25
2023-05-05T04:58:29.933Z,1.00
2023-05-05T04:59:34.133Z,0.50
2023-05-05T05:00:38.344Z,1.25
2023-05-05T05:01:42.581Z,0.75
2023-05-05T05:02:46.990Z,0.75
2023-05-05T05:03:51.568Z,0.00
2023-05-05T05:04:55.778Z,0.00
2023-05-05T05:06:00.329Z,0.50
2023-05-05T05:07:04.502Z,1.00
2023-05-05T05:08:08.731Z,1.00
2023-05-05T05:09:13.251Z,0.50
2023-05-05T05:10:17.736Z,0.50
2023-05-05T05:11:22.448Z,0.00
2023-05-05T05:12:26.862Z,0.50
2023-05-05T05:13:31.349Z,0.50
2023-05-05T05:14:35.890Z,0.50
2023-05-05T05:15:40.075Z,0.50
2023-05-05T05:16:44.361Z,0.50
2023-05-05T05:17:48.589Z,0.50
2023-05-05T05:18:52.787Z,0.50
2023-05-05T05:19:57.018Z,0.00
2023-05-05T05:21:01.445Z,0.25
2023-05-05T05:22:05.950Z,0.00
2023-05-05T05:23:10.457Z,0.50
2023-05-05T05:24:14.747Z,0.50
2023-05-05T05:25:19.379Z,1.00
2023-05-05T05:26:23.676Z,1.00
2023-05-05T05:27:27.996Z,0.50
2023-05-05T05:28:32.408Z,0.50
2023-05-05T05:29:36.480Z,0.50
2023-05-05T05:30:41.603Z,0.00
2023-05-05T05:31:45.669Z,0.50
2023-05-05T05:32:49.887Z,0.25
2023-05-05T05:33:54.353Z,0.00
2023-05-05T05:34:58.462Z,0.25
2023-05-05T05:36:02.781Z,0.00
2023-05-05T05:37:08.402Z,0.00
2023-05-05T05:38:12.612Z,0.25
2023-05-05T05:39:16.718Z,0.00
2023-05-05T05:40:21.024Z,0.50
2023-05-05T05:41:25.036Z,0.00
2023-05-05T05:42:29.437Z,0.50
2023-05-05T05:43:33.484Z,1.00
2023-05-05T05:44:38.855Z,1.00
2023-05-05T05:45:42.978Z,0.25
2023-05-05T05:46:46.901Z,0.00
2023-05-05T05:47:52.870Z,0.50
2023-05-05T05:48:56.828Z,1.00
2023-05-05T05:50:02.336Z,1.00
2023-05-05T05:51:06.804Z,0.25
2023-05-05T05:52:11.081Z,0.50
2023-05-05T05:53:15.400Z,0.50
2023-05-05T05:54:19.587Z,0.00
2023-05-05T05:55:24.320Z,1.00
2023-05-05T05:56:28.936Z,0.50
2023-05-05T05:57:33.364Z,1.00
2023-05-05T05:58:37.666Z,0.25
2023-05-05T05:59:42.079Z,0.50
2023-05-05T06:00:46.582Z,1.00
2023-05-05T06:01:50.770Z,0.50
2023-05-05T06:02:55.162Z,1.00
2023-05-05T06:03:59.373Z,1.00
2023-05-05T06:05:03.514Z,0.75
2023-05-05T06:06:07.614Z,1.00
2023-05-05T06:07:11.901Z,1.00
2023-05-05T06:08:16.386Z,1.00
2023-05-05T06:09:20.722Z,0.25
2023-05-05T06:10:27.441Z,0.00
2023-05-05T06:11:30.461Z,0.25
2023-05-05T06:12:34.904Z,0.00
2023-05-05T06:13:39.593Z,0.00
2023-05-05T06:14:44.011Z,0.00
2023-05-05T06:15:48.545Z,0.00
2023-05-05T06:16:52.835Z,0.50
2023-05-05T06:17:56.920Z,0.50
2023-05-05T06:19:01.137Z,0.75
2023-05-05T06:20:05.811Z,0.50
2023-05-05T06:21:09.961Z,0.75
2023-05-05T06:22:14.182Z,1.00
2023-05-05T06:23:18.984Z,0.50
2023-05-05T06:24:23.290Z,1.00
2023-05-05T06:25:27.506Z,0.50
2023-05-05T06:26:31.909Z,0.50
2023-05-05T06:27:36.314Z,1.00
2023-05-05T06:28:40.627Z,1.00
2023-05-05T06:29:45.036Z,0.50
2023-05-05T06:30:49.443Z,0.25
2023-05-05T06:31:53.898Z,1.50
2023-05-05T06:32:58.197Z,1.00
2023-05-05T06:34:02.271Z,0.50
2023-05-05T06:35:06.391Z,0.50
2023-05-05T06:36:10.527Z,1.00
2023-05-05T06:37:14.571Z,0.50
2023-05-05T06:38:19.611Z,0.75
2023-05-05T06:39:23.739Z,1.00
2023-05-05T06:40:27.889Z,0.50
2023-05-05T06:41:32.026Z,1.00
2023-05-05T06:42:36.128Z,1.00
2023-05-05T06:43:40.551Z,1.00
2023-05-05T06:44:44.441Z,0.50
2023-05-05T06:45:48.535Z,1.00
2023-05-05T06:46:52.584Z,0.00
2023-05-05T06:47:59.644Z,1.00
2023-05-05T06:49:04.030Z,1.00
2023-05-05T06:50:08.787Z,0.50
2023-05-05T06:51:14.767Z,0.50
2023-05-05T06:52:19.005Z,0.75
2023-05-05T06:53:23.328Z,-0.25
2023-05-05T06:54:27.831Z,0.50
2023-05-05T06:55:32.236Z,1.00
2023-05-05T06:56:36.445Z,1.00
2023-05-05T06:57:40.636Z,0.50
2023-05-05T06:58:45.161Z,0.00
2023-05-05T06:59:49.764Z,0.00
2023-05-05T07:00:54.158Z,1.00
2023-05-05T07:01:58.384Z,0.75
2023-05-05T07:03:02.919Z,1.00
2023-05-05T07:04:07.398Z,0.75
2023-05-05T07:05:11.833Z,0.00
2023-05-05T07:06:15.940Z,0.00
2023-05-05T07:07:20.232Z,0.25
2023-05-05T07:08:24.635Z,1.00
2023-05-05T07:09:28.859Z,0.50
2023-05-05T07:10:33.372Z,0.00
2023-05-05T07:11:37.669Z,1.00
2023-05-05T07:12:41.881Z,1.00
2023-05-05T07:13:46.394Z,1.00
2023-05-05T07:14:50.702Z,0.75
2023-05-05T07:15:54.787Z,1.00
2023-05-05T07:16:59.186Z,1.00
2023-05-05T07:18:03.715Z,0.50
2023-05-05T07:19:07.743Z,0.75
2023-05-05T07:20:12.043Z,1.00
2023-05-05T07:21:16.714Z,0.75
2023-05-05T07:22:21.376Z,0.50
2023-05-05T07:23:27.448Z,1.50
2023-05-05T07:24:31.422Z,1.50
2023-05-05T07:25:35.526Z,1.50
2023-05-05T07:26:39.731Z,0.50
2023-05-05T07:27:44.057Z,1.50
2023-05-05T07:28:48.558Z,0.50
2023-05-05T07:29:52.971Z,0.50
2023-05-05T07:30:57.070Z,0.25
2023-05-05T07:32:01.326Z,0.50
2023-05-05T07:33:05.395Z,1.00
2023-05-05T07:34:09.705Z,1.00
2023-05-05T07:35:13.717Z,0.50
2023-05-05T07:36:19.014Z,0.75
2023-05-05T07:37:24.488Z,0.75
2023-05-05T07:38:30.063Z,1.00
2023-05-05T07:39:34.423Z,1.00
2023-05-05T07:40:38.806Z,1.00
2023-05-05T07:41:43.389Z,0.25
2023-05-05T07:42:47.854Z,1.00
2023-05-05T07:43:52.249Z,1.00
2023-05-05T07:44:56.429Z,1.50
2023-05-05T07:46:00.798Z,1.25
2023-05-05T07:47:05.169Z,1.00
2023-05-05T07:48:09.716Z,1.00
2023-05-05T07:49:16.180Z,1.25
2023-05-05T07:50:20.684Z,0.50
2023-05-05T07:51:25.269Z,0.50
2023-05-05T07:52:44.303Z,1.00
2023-05-05T07:53:34.913Z,0.50
2023-05-05T07:54:40.539Z,2.00
2023-05-05T07:55:44.459Z,2.00
2023-05-05T07:56:48.560Z,1.50
2023-05-05T07:57:53.074Z,2.00
2023-05-05T07:58:57.372Z,1.50
2023-05-05T08:00:02.095Z,1.00
2023-05-05T08:01:06.943Z,0.50
2023-05-05T08:02:11.559Z,1.00
2023-05-05T08:03:15.973Z,1.50
2023-05-05T08:04:20.482Z,1.50
2023-05-05T08:05:24.862Z,1.50
2023-05-05T08:06:29.265Z,1.75
2023-05-05T08:07:33.609Z,1.50
2023-05-05T08:08:38.101Z,2.00
2023-05-05T08:09:42.504Z,1.00
2023-05-05T08:10:48.773Z,1.00
2023-05-05T08:11:52.998Z,1.00
2023-05-05T08:12:57.339Z,1.50
2023-05-05T08:14:01.581Z,1.50
2023-05-05T08:15:08.078Z,1.75
2023-05-05T08:16:12.472Z,1.50
2023-05-05T08:17:19.602Z,1.25
2023-05-05T08:18:23.631Z,2.00
2023-05-05T08:19:29.546Z,1.50
2023-05-05T08:20:32.856Z,1.00
2023-05-05T08:21:37.164Z,1.75
2023-05-05T08:22:41.082Z,1.00
2023-05-05T08:23:52.153Z,1.50
2023-05-05T08:24:58.505Z,1.25
2023-05-05T08:26:02.393Z,2.00
2023-05-05T08:27:08.677Z,1.25
2023-05-05T08:28:13.153Z,1.00
2023-05-05T08:29:17.359Z,1.00
2023-05-05T08:30:24.592Z,1.00
2023-05-05T08:31:28.777Z,1.25
2023-05-05T08:32:32.876Z,2.00
2023-05-05T08:33:36.901Z,1.50
2023-05-05T08:34:40.850Z,1.75
2023-05-05T08:35:44.952Z,2.00
2023-05-05T08:36:49.055Z,2.00
2023-05-05T08:37:53.392Z,1.50
2023-05-05T08:38:57.458Z,1.50
2023-05-05T08:40:01.379Z,1.00
2023-05-05T08:41:05.496Z,1.75
2023-05-05T08:42:09.472Z,1.00
2023-05-05T08:43:13.471Z,1.50
2023-05-05T08:44:17.470Z,1.75
2023-05-05T08:45:21.471Z,1.25
2023-05-05T08:46:25.494Z,1.25
2023-05-05T08:47:29.512Z,1.00
2023-05-05T08:48:33.585Z,2.00
2023-05-05T08:49:37.580Z,2.00
2023-05-05T08:50:42.906Z,1.00
2023-05-05T08:51:47.214Z,1.50
2023-05-05T08:52:51.389Z,2.00
2023-05-05T08:53:55.427Z,2.00
2023-05-05T08:54:59.729Z,2.00
2023-05-05T08:56:03.802Z,1.50
2023-05-05T08:57:07.781Z,1.25
2023-05-05T08:58:11.729Z,1.50
2023-05-05T08:59:15.843Z,2.50
2023-05-05T09:00:19.724Z,2.00
2023-05-05T09:01:23.985Z,1.50
2023-05-05T09:02:28.103Z,2.00
2023-05-05T09:03:32.338Z,1.00
2023-05-05T09:04:36.353Z,2.00
2023-05-05T09:05:41.616Z,2.00
2023-05-05T09:06:45.583Z,2.00
2023-05-05T09:07:49.785Z,1.50
2023-05-05T09:08:56.055Z,1.25
2023-05-05T09:10:00.371Z,2.00
2023-05-05T09:11:04.775Z,2.00
2023-05-05T09:12:10.600Z,2.25
2023-05-05T09:13:14.634Z,2.00
2023-05-05T09:14:18.710Z,1.25
2023-05-05T09:15:22.913Z,1.00
2023-05-05T09:16:26.981Z,1.50
2023-05-05T09:17:30.947Z,2.00
2023-05-05T09:18:34.916Z,1.50
2023-05-05T09:19:39.025Z,1.50
2023-05-05T09:20:43.042Z,1.25
2023-05-05T09:21:47.025Z,2.00
2023-05-05T09:22:51.129Z,1.50
2023-05-05T09:23:57.042Z,2.00
2023-05-05T09:25:00.286Z,1.25
2023-05-05T09:26:04.272Z,1.75
2023-05-05T09:27:08.371Z,1.50
2023-05-05T09:28:12.421Z,1.75
2023-05-05T09:29:16.470Z,1.50
2023-05-05T09:30:23.620Z,1.25
2023-05-05T09:31:27.568Z,2.50
2023-05-05T09:32:31.437Z,2.25
2023-05-05T09:33:35.647Z,2.25
2023-05-05T09:34:39.777Z,1.50
2023-05-05T09:35:43.757Z,2.00
2023-05-05T09:36:51.024Z,2.50
2023-05-05T09:37:55.055Z,1.75
2023-05-05T09:38:59.247Z,2.00
2023-05-05T09:40:03.441Z,2.50
2023-05-05T09:41:07.754Z,2.50
2023-05-05T09:42:11.656Z,2.50
2023-05-05T09:43:15.616Z,2.50
2023-05-05T09:44:20.265Z,1.50
2023-05-05T09:45:25.712Z,2.25
2023-05-05T09:49:03.925Z,1.50
2023-05-05T09:50:08.315Z,2.25
2023-05-05T09:51:13.053Z,1.50
2023-05-05T09:52:18.908Z,2.25
2023-05-05T09:53:23.198Z,1.50
2023-05-05T09:54:27.507Z,1.25
2023-05-05T09:55:31.833Z,1.00
2023-05-05T09:56:36.126Z,1.75
2023-05-05T09:57:40.263Z,2.50
2023-05-05T09:58:44.246Z,2.00
2023-05-05T09:59:48.532Z,1.50
2023-05-05T10:00:52.879Z,2.00
2023-05-05T10:01:56.842Z,2.50
2023-05-05T10:03:01.178Z,2.25
2023-05-05T10:04:05.873Z,2.00
2023-05-05T10:05:10.141Z,2.00
2023-05-05T10:06:15.910Z,2.00
2023-05-05T10:07:20.456Z,2.00
2023-05-05T10:08:24.841Z,2.50
2023-05-05T10:09:32.328Z,2.00
2023-05-05T10:10:37.760Z,2.00
2023-05-05T10:11:45.545Z,1.75
2023-05-05T10:12:49.735Z,2.50
2023-05-05T10:13:54.077Z,2.00
2023-05-05T10:14:58.256Z,1.25
2023-05-05T10:16:04.364Z,1.50
2023-05-05T10:17:08.487Z,1.75
2023-05-05T10:18:12.601Z,2.00
2023-05-05T10:19:16.685Z,1.50
2023-05-05T10:20:20.750Z,1.00
2023-05-05T10:21:24.951Z,2.00
2023-05-05T10:22:29.150Z,2.50
2023-05-05T10:23:33.250Z,2.00
2023-05-05T10:24:38.646Z,1.50
2023-05-05T10:25:43.808Z,2.00
2023-05-05T10:26:47.805Z,2.00
2023-05-05T10:27:51.819Z,2.00
2023-05-05T10:28:55.816Z,2.00
2023-05-05T10:30:00.980Z,2.00
2023-05-05T10:31:16.144Z,2.00
2023-05-05T10:32:33.569Z,1.25
2023-05-05T10:33:31.052Z,1.50
2023-05-05T10:34:20.635Z,1.50
2023-05-05T10:35:24.639Z,1.00
2023-05-05T10:36:28.669Z,2.00
2023-05-05T10:37:32.856Z,1.50
2023-05-05T10:38:36.762Z,2.00
2023-05-05T10:39:40.650Z,1.75
2023-05-05T10:40:44.656Z,1.50
2023-05-05T10:41:48.653Z,1.25
2023-05-05T10:42:52.673Z,1.50
2023-05-05T10:43:58.593Z,2.00
2023-05-05T10:45:02.619Z,2.00
2023-05-05T10:46:06.659Z,1.50
2023-05-05T10:47:13.070Z,1.25
2023-05-05T10:48:17.068Z,1.50
2023-05-05T10:49:21.266Z,2.00
2023-05-05T10:50:25.467Z,2.00
2023-05-05T10:51:39.374Z,1.00
2023-05-05T10:52:34.904Z,1.00
2023-05-05T10:53:38.816Z,1.50
2023-05-05T10:54:42.911Z,1.50
2023-05-05T10:55:46.801Z,2.00
2023-05-05T10:56:50.804Z,1.50
2023-05-05T10:57:54.830Z,1.00
2023-05-05T10:59:00.074Z,1.50
2023-05-05T11:00:06.064Z,2.00
2023-05-05T11:01:10.102Z,2.50
2023-05-05T11:02:14.005Z,1.25
2023-05-05T11:03:18.108Z,1.00
2023-05-05T11:04:22.210Z,0.75
2023-05-05T11:05:26.191Z,1.00
2023-05-05T11:06:30.300Z,1.50
2023-05-05T11:07:34.528Z,2.00
2023-05-05T11:08:38.537Z,0.50
2023-05-05T11:09:42.702Z,0.50
2023-05-05T11:10:46.730Z,1.75
2023-05-05T11:11:50.813Z,1.50
2023-05-05T11:12:55.024Z,2.25
2023-05-05T11:13:59.116Z,2.00
2023-05-05T11:15:03.225Z,2.00
2023-05-05T11:16:07.412Z,1.75
2023-05-05T11:17:11.435Z,2.00
2023-05-05T11:18:17.357Z,2.25
2023-05-05T11:19:21.478Z,0.50
2023-05-05T11:20:27.739Z,1.50
2023-05-05T11:21:31.633Z,1.25
2023-05-05T11:22:35.567Z,2.00
2023-05-05T11:23:39.738Z,1.50
2023-05-05T11:24:43.826Z,1.25
2023-05-05T11:25:47.836Z,2.00
2023-05-05T11:26:52.162Z,2.00
2023-05-05T11:27:59.770Z,1.25
2023-05-05T11:29:06.596Z,1.75
2023-05-05T11:30:10.925Z,1.25
2023-05-05T11:31:15.570Z,1.50
2023-05-05T11:32:21.521Z,1.00
2023-05-05T11:33:25.476Z,1.00
2023-05-05T11:34:30.704Z,1.50
2023-05-05T11:35:34.804Z,1.50
2023-05-05T11:36:38.811Z,1.50
2023-05-05T11:37:43.017Z,0.50
2023-05-05T11:38:47.216Z,1.50
2023-05-05T11:39:53.064Z,2.00
2023-05-05T11:40:57.170Z,2.50
2023-05-05T11:42:09.379Z,2.00
2023-05-05T11:43:08.760Z,2.00
2023-05-05T11:44:14.293Z,1.25
2023-05-05T11:45:18.702Z,1.75
2023-05-05T11:46:22.958Z,2.00
2023-05-05T11:47:27.483Z,0.50
2023-05-05T11:48:31.727Z,1.00
2023-05-05T11:49:38.393Z,1.50
2023-05-05T11:50:42.669Z,2.00
2023-05-05T11:51:47.016Z,0.50
2023-05-05T11:52:52.603Z,1.25
2023-05-05T11:53:58.516Z,2.00
2023-05-05T11:55:01.886Z,1.75
2023-05-05T11:56:06.093Z,1.50
2023-05-05T11:57:10.284Z,1.50
2023-05-05T11:58:14.510Z,1.50
2023-05-05T11:59:20.226Z,1.50
2023-05-05T12:00:30.146Z,2.00
2023-05-05T12:01:34.248Z,1.50
2023-05-05T12:02:38.676Z,2.50
2023-05-05T12:03:42.703Z,2.50
2023-05-05T12:04:46.860Z,1.50
2023-05-05T12:05:50.895Z,1.00
2023-05-05T12:06:55.011Z,2.00
2023-05-05T12:07:59.104Z,1.00
2023-05-05T12:09:04.488Z,2.50
2023-05-05T12:10:09.848Z,2.50
2023-05-05T12:11:14.296Z,2.00
2023-05-05T12:12:20.295Z,2.25
2023-05-05T12:13:24.369Z,2.00
2023-05-05T12:14:28.392Z,2.25
2023-05-05T12:15:32.352Z,3.00
2023-05-05T12:16:36.431Z,2.00
2023-05-05T12:17:40.385Z,2.00
2023-05-05T12:18:45.965Z,1.00
2023-05-05T12:19:49.710Z,1.50
2023-05-05T12:20:53.880Z,1.50
2023-05-05T12:21:58.086Z,1.75
2023-05-05T12:23:02.322Z,2.00
2023-05-05T12:24:06.598Z,1.75
2023-05-05T12:25:10.771Z,2.50
2023-05-05T12:26:15.060Z,2.00
2023-05-05T12:27:19.420Z,1.00
2023-05-05T12:28:23.298Z,1.50
2023-05-05T12:29:27.530Z,2.00
2023-05-05T12:30:31.829Z,2.00
2023-05-05T12:31:36.093Z,1.50
2023-05-05T12:32:40.589Z,1.50
2023-05-05T12:33:47.297Z,1.50
2023-05-05T12:34:51.337Z,2.25
2023-05-05T12:35:55.630Z,1.00
2023-05-05T12:36:59.859Z,1.50
2023-05-05T12:38:04.056Z,2.00
2023-05-05T12:39:12.392Z,1.50
2023-05-05T12:40:16.247Z,3.00
2023-05-05T12:41:20.452Z,2.50
2023-05-05T12:42:24.245Z,2.00
2023-05-05T12:43:28.210Z,2.00
2023-05-05T12:44:32.125Z,2.25
2023-05-05T12:45:37.706Z,2.00
2023-05-05T12:46:41.279Z,2.00
2023-05-05T12:47:45.319Z,2.25
2023-05-05T12:48:52.860Z,2.00
2023-05-05T12:49:56.959Z,3.00
2023-05-05T12:51:00.961Z,1.75
2023-05-05T12:52:05.061Z,2.50
2023-05-05T12:53:09.173Z,2.00
2023-05-05T12:54:13.154Z,2.25
2023-05-05T12:55:17.172Z,1.50
2023-05-05T12:56:21.274Z,3.00
2023-05-05T12:57:25.279Z,3.00
2023-05-05T12:58:29.480Z,3.00
2023-05-05T12:59:33.489Z,2.50
2023-05-05T13:00:37.513Z,1.50
2023-05-05T13:01:41.726Z,2.00
2023-05-05T13:02:46.091Z,1.50
2023-05-05T13:03:52.114Z,2.50
2023-05-05T13:04:58.087Z,2.25
2023-05-05T13:06:02.017Z,1.25
2023-05-05T13:07:06.002Z,2.50
2023-05-05T13:08:10.098Z,2.50
2023-05-05T13:09:14.111Z,1.75
2023-05-05T13:10:18.324Z,1.50
2023-05-05T13:11:22.441Z,2.50
2023-05-05T13:12:26.516Z,2.00
2023-05-05T13:13:30.637Z,2.25
2023-05-05T13:14:34.761Z,1.50
2023-05-05T13:15:38.773Z,1.50
2023-05-05T13:16:42.753Z,2.00
2023-05-05T13:17:46.846Z,2.00
2023-05-05T13:18:50.745Z,2.50
2023-05-05T13:19:54.729Z,2.25
2023-05-05T13:20:58.831Z,2.00
2023-05-05T13:22:02.709Z,2.00
2023-05-05T13:23:06.731Z,1.75
2023-05-05T13:24:21.302Z,2.00
2023-05-05T13:25:15.981Z,2.25
2023-05-05T13:26:32.457Z,2.00
2023-05-05T13:27:36.665Z,1.75
2023-05-05T13:28:40.969Z,2.00
2023-05-05T13:29:45.487Z,3.00
2023-05-05T13:30:49.692Z,2.25
2023-05-05T13:31:56.888Z,3.00
2023-05-05T13:33:04.210Z,2.00
2023-05-05T13:34:10.920Z,2.00
2023-05-05T13:35:16.933Z,1.00
2023-05-05T13:36:20.550Z,2.25
2023-05-05T13:37:24.859Z,3.00
2023-05-05T13:38:29.162Z,2.25
2023-05-05T13:39:33.486Z,2.50
2023-05-05T13:40:37.572Z,2.25
2023-05-05T13:41:41.701Z,1.50
2023-05-05T13:42:45.800Z,2.00
2023-05-05T13:43:49.988Z,2.75
2023-05-05T13:44:54.192Z,2.00
2023-05-05T13:46:08.718Z,1.25
2023-05-05T13:47:03.870Z,2.00
2023-05-05T13:48:11.064Z,1.50
2023-05-05T13:49:14.999Z,2.00
2023-05-05T13:50:19.116Z,2.50
2023-05-05T13:51:29.101Z,2.50
2023-05-05T13:52:33.474Z,3.00
2023-05-05T13:53:41.378Z,2.00
2023-05-05T13:54:45.257Z,2.50
2023-05-05T13:55:49.084Z,2.50
2023-05-05T13:56:53.069Z,2.50
2023-05-05T13:57:57.262Z,2.25
2023-05-05T13:59:01.157Z,3.00
2023-05-05T14:00:05.202Z,2.50
2023-05-05T14:01:09.328Z,3.00
2023-05-05T14:02:13.468Z,1.25
2023-05-05T14:03:17.486Z,2.00
2023-05-05T14:04:21.512Z,2.50
2023-05-05T14:05:25.573Z,2.50
2023-05-05T14:06:29.538Z,3.00
2023-05-05T14:07:33.500Z,2.75
2023-05-05T14:08:37.373Z,2.50
2023-05-05T14:09:41.391Z,3.00
2023-05-05T14:10:46.089Z,3.00
2023-05-05T14:11:50.292Z,2.00
2023-05-05T14:12:54.317Z,3.50
2023-05-05T14:13:58.197Z,3.00
2023-05-05T14:15:02.069Z,3.00
2023-05-05T14:16:06.048Z,2.75
2023-05-05T14:17:09.951Z,3.00
2023-05-05T14:18:13.748Z,2.50
2023-05-05T14:19:17.469Z,2.75
2023-05-05T14:20:21.520Z,3.50